Time;durP1;ratioP1;P1;durP2;ratioP2;P2;SDS_P1;SDS_P2;PMS_P1;PMS_P2;Temp;Humidity;BMP_temperature;BMP_pressure;BME280_temperature;BME280_humidity;BME280_pressure;Samples;Min_cycle;Max_cycle;Signal;HPM_P1;HPM_P2
2022/06/07 00:01:15;;;;;;;5.93;4.43;;;15.90;99.90;;;;;;5025122;28;20593;-73
2022/06/07 00:03:41;;;;;;;4.60;4.10;;;15.90;99.90;;;;;;5004964;28;20061;-73
2022/06/07 00:06:07;;;;;;;8.20;4.10;;;15.70;99.90;;;;;;5019655;28;20053;-74
2022/06/07 00:08:32;;;;;;;6.45;4.43;;;15.70;99.90;;;;;;5023285;28;20068;-76
2022/06/07 00:10:58;;;;;;;5.07;4.55;;;15.60;99.90;;;;;;5008514;28;20028;-74
2022/06/07 00:13:24;;;;;;;4.70;4.28;;;15.80;99.90;;;;;;5023830;28;20021;-74
2022/06/07 00:15:50;;;;;;;7.45;5.03;;;15.70;99.90;;;;;;5002305;28;20375;-74
2022/06/07 00:18:15;;;;;;;6.07;5.28;;;15.30;99.90;;;;;;5023096;28;20100;-72
2022/06/07 00:20:43;;;;;;;5.22;4.43;;;15.40;99.90;;;;;;5016107;28;20472;-73
2022/06/07 00:23:13;;;;;;;6.35;4.82;;;15.60;99.90;;;;;;5022886;28;20022;-73
2022/06/07 00:25:39;;;;;;;7.72;4.93;;;15.50;99.90;;;;;;5026481;28;20033;-73
2022/06/07 00:28:06;;;;;;;4.60;4.20;;;15.40;99.90;;;;;;5006320;28;20032;-73
2022/06/07 00:30:32;;;;;;;5.32;4.70;;;15.30;99.90;;;;;;5018896;28;20030;-75
2022/06/07 00:32:58;;;;;;;5.05;4.43;;;15.40;99.90;;;;;;5004591;28;20526;-74
2022/06/07 00:35:24;;;;;;;6.10;4.53;;;15.40;99.90;;;;;;5008727;28;20117;-75
2022/06/07 00:37:50;;;;;;;5.88;4.70;;;15.40;99.90;;;;;;5023678;28;20029;-74
2022/06/07 00:40:16;;;;;;;8.27;5.10;;;15.40;99.90;;;;;;5018928;28;20022;-76
2022/06/07 00:42:42;;;;;;;6.93;6.22;;;15.40;99.90;;;;;;5004578;28;20060;-75
2022/06/07 00:45:14;;;;;;;6.82;5.40;;;15.20;99.90;;;;;;5030012;28;20499;-75
2022/06/07 00:47:40;;;;;;;7.32;5.40;;;15.20;99.90;;;;;;5032721;28;20061;-75
2022/06/07 00:50:26;;;;;;;6.68;5.50;;;15.40;99.90;;;;;;5014403;28;20088;-76
2022/06/07 00:52:51;;;;;;;6.90;6.20;;;15.10;99.90;;;;;;5008502;28;20025;-75
2022/06/07 00:55:17;;;;;;;6.85;6.15;;;14.60;99.90;;;;;;5021003;28;20112;-73
2022/06/07 00:57:43;;;;;;;7.00;6.40;;;14.40;99.90;;;;;;5019208;28;20084;-74
2022/06/07 01:00:12;;;;;;;6.20;5.32;;;14.60;99.90;;;;;;5023633;28;20084;-75
2022/06/07 01:02:37;;;;;;;6.60;5.80;;;14.60;99.90;;;;;;5015222;28;20554;-72
2022/06/07 01:05:04;;;;;;;6.03;5.38;;;14.70;99.90;;;;;;5024013;28;20049;-73
2022/06/07 01:12:58;;;;;;;7.93;5.22;;;15.00;99.90;;;;;;5025490;28;20629;-75
2022/06/07 01:15:23;;;;;;;6.00;5.18;;;15.30;99.90;;;;;;4995322;28;20030;-74
2022/06/07 01:17:49;;;;;;;6.50;5.30;;;15.10;99.90;;;;;;5007217;28;20030;-74
2022/06/07 01:20:14;;;;;;;9.02;6.35;;;15.10;99.90;;;;;;5026037;28;20021;-73
2022/06/07 01:22:40;;;;;;;6.35;5.75;;;14.50;99.90;;;;;;5001493;28;20022;-75
2022/06/07 01:25:07;;;;;;;6.43;5.47;;;14.70;99.90;;;;;;5019156;28;20034;-73
2022/06/07 01:27:32;;;;;;;7.00;5.40;;;14.90;99.90;;;;;;5024968;28;20030;-75
2022/06/07 01:29:58;;;;;;;6.00;5.50;;;14.80;99.90;;;;;;5026447;28;20117;-73
2022/06/07 01:32:24;;;;;;;6.80;5.82;;;14.80;99.90;;;;;;5050286;22;20426;-77
2022/06/07 01:34:50;;;;;;;6.85;5.68;;;14.80;99.90;;;;;;5071139;28;20425;-77
2022/06/07 01:37:18;;;;;;;6.13;5.63;;;14.80;99.90;;;;;;5076248;28;20592;-77
2022/06/07 01:42:29;;;;;;;6.03;5.43;;;15.00;99.90;;;;;;5084337;28;20311;-77
2022/06/07 01:44:56;;;;;;;7.63;5.60;;;15.00;99.90;;;;;;5052402;28;20078;-78
2022/06/07 01:47:29;;;;;;;7.22;5.45;;;14.90;99.90;;;;;;5055410;28;20381;-78
2022/06/07 01:49:55;;;;;;;5.82;4.72;;;15.10;99.90;;;;;;5035882;28;20029;-77
2022/06/07 01:52:24;;;;;;;5.85;5.05;;;15.20;99.90;;;;;;5052455;28;20029;-76
2022/06/07 01:54:53;;;;;;;8.38;5.57;;;15.30;99.90;;;;;;5044822;28;20025;-77
2022/06/07 01:57:20;;;;;;;6.22;5.63;;;15.10;99.90;;;;;;5044216;28;20021;-77
2022/06/07 01:59:46;;;;;;;7.15;5.60;;;15.00;99.90;;;;;;5036247;28;20120;-77
2022/06/07 02:02:13;;;;;;;6.60;5.88;;;15.10;99.90;;;;;;5062750;28;20048;-77
2022/06/07 02:04:40;;;;;;;8.23;5.80;;;14.90;99.90;;;;;;5072534;28;20017;-77
2022/06/07 02:07:07;;;;;;;6.70;5.25;;;14.90;99.90;;;;;;5056276;28;20054;-76
2022/06/07 02:09:33;;;;;;;8.35;5.63;;;15.00;99.90;;;;;;5073908;28;20501;-78
2022/06/07 02:11:59;;;;;;;5.70;4.95;;;15.10;99.90;;;;;;5075867;28;20067;-78
2022/06/07 02:14:25;;;;;;;6.40;4.80;;;15.00;99.90;;;;;;5077498;28;20035;-78
2022/06/07 02:16:51;;;;;;;7.03;4.80;;;15.20;99.90;;;;;;5077155;28;20025;-78
2022/06/07 02:19:17;;;;;;;5.40;4.82;;;15.30;99.90;;;;;;5077696;28;20104;-78
2022/06/07 02:21:42;;;;;;;5.55;4.32;;;15.40;99.90;;;;;;5077902;28;20031;-78
2022/06/07 02:24:09;;;;;;;5.30;4.80;;;15.40;99.90;;;;;;5078080;28;20023;-77
2022/06/07 02:26:43;;;;;;;4.85;4.22;;;15.70;99.90;;;;;;5076932;28;20409;-76
2022/06/07 02:29:13;;;;;;;6.15;4.97;;;15.70;99.90;;;;;;5051977;28;20021;-75
2022/06/07 02:31:43;;;;;;;5.28;4.35;;;15.80;99.90;;;;;;5052964;28;20402;-75
2022/06/07 02:34:10;;;;;;;6.13;4.45;;;15.70;99.90;;;;;;5056984;28;20056;-75
2022/06/07 02:36:37;;;;;;;4.93;4.53;;;15.80;99.90;;;;;;5056806;28;20107;-75
2022/06/07 02:39:03;;;;;;;4.72;4.30;;;15.80;99.90;;;;;;5056735;28;20063;-76
2022/06/07 02:41:32;;;;;;;5.82;4.68;;;15.70;99.90;;;;;;5056615;28;20067;-77
2022/06/07 02:43:57;;;;;;;5.60;4.32;;;15.70;99.90;;;;;;5074751;28;20508;-76
2022/06/07 02:46:23;;;;;;;6.07;4.45;;;15.70;99.90;;;;;;5074556;28;20036;-76
2022/06/07 02:48:49;;;;;;;7.18;4.45;;;15.80;99.90;;;;;;5057622;28;20024;-77
2022/06/07 02:51:14;;;;;;;6.05;4.50;;;15.90;99.90;;;;;;5041410;28;20111;-76
2022/06/07 02:53:40;;;;;;;5.00;4.50;;;15.80;99.90;;;;;;5037233;28;20021;-77
2022/06/07 02:56:05;;;;;;;6.13;4.55;;;15.80;99.90;;;;;;5038379;28;20040;-77
2022/06/07 02:58:31;;;;;;;4.93;4.43;;;15.90;99.90;;;;;;5056982;28;20034;-77
2022/06/07 03:01:00;;;;;;;5.45;4.70;;;15.90;99.90;;;;;;5056618;28;20035;-77
2022/06/07 03:03:27;;;;;;;6.63;4.60;;;15.80;99.90;;;;;;5058636;28;20021;-77
2022/06/07 03:05:53;;;;;;;6.20;4.50;;;15.90;99.90;;;;;;5040102;28;20021;-77
2022/06/07 03:08:19;;;;;;;6.90;4.95;;;16.00;99.90;;;;;;5065931;28;20032;-76
2022/06/07 03:10:48;;;;;;;5.38;4.60;;;16.00;99.90;;;;;;5059629;28;20043;-75
2022/06/07 03:13:15;;;;;;;5.28;4.78;;;16.00;99.90;;;;;;5054097;28;20043;-75
2022/06/07 03:15:41;;;;;;;5.63;4.68;;;15.80;99.90;;;;;;5035994;28;20123;-76
2022/06/07 03:18:07;;;;;;;6.22;4.90;;;15.70;99.90;;;;;;5036306;28;20025;-76
2022/06/07 03:20:33;;;;;;;6.45;4.72;;;15.80;99.90;;;;;;5053424;28;20083;-75
2022/06/07 03:22:59;;;;;;;5.75;4.93;;;15.70;99.90;;;;;;5035355;28;20018;-76
2022/06/07 03:25:25;;;;;;;5.30;4.82;;;15.90;99.90;;;;;;5036039;28;20028;-76
2022/06/07 03:27:51;;;;;;;5.60;5.10;;;15.50;99.90;;;;;;5036294;28;20029;-75
2022/06/07 03:30:17;;;;;;;6.82;5.32;;;15.70;99.90;;;;;;5035732;28;20048;-77
2022/06/07 03:32:43;;;;;;;5.40;4.90;;;15.70;99.90;;;;;;5052716;28;20025;-77
2022/06/07 03:35:10;;;;;;;5.85;4.85;;;15.80;99.90;;;;;;5035746;28;20036;-76
2022/06/07 03:37:37;;;;;;;5.53;4.53;;;15.70;99.90;;;;;;5052520;28;20028;-77
2022/06/07 03:40:08;;;;;;;5.50;5.00;;;15.80;99.90;;;;;;5052621;28;20021;-77
2022/06/07 03:42:33;;;;;;;7.03;5.05;;;15.70;99.90;;;;;;5053133;28;20016;-76
2022/06/07 03:44:59;;;;;;;8.88;5.63;;;15.40;99.90;;;;;;5039775;28;20083;-78
2022/06/07 03:47:25;;;;;;;5.88;5.10;;;15.40;99.90;;;;;;5054172;28;20025;-76
2022/06/07 03:49:51;;;;;;;7.03;5.03;;;15.60;99.90;;;;;;5053594;28;20071;-75
2022/06/07 03:52:17;;;;;;;6.13;5.22;;;15.70;99.90;;;;;;5035001;28;20107;-77
2022/06/07 03:54:43;;;;;;;6.15;4.85;;;15.80;99.90;;;;;;5052438;28;20379;-76
2022/06/07 03:57:10;;;;;;;5.75;4.30;;;15.80;99.90;;;;;;5045007;28;20021;-76
2022/06/07 03:59:36;;;;;;;5.45;4.72;;;15.80;99.90;;;;;;5053261;28;20416;-77
2022/06/07 04:02:02;;;;;;;5.57;4.97;;;15.60;99.90;;;;;;5034848;28;20048;-75
2022/06/07 04:04:28;;;;;;;5.93;5.30;;;15.50;99.90;;;;;;5054100;28;20029;-77
2022/06/07 04:09:41;;;;;;;6.05;5.38;;;15.50;99.90;;;;;;5055721;28;20079;-77
2022/06/07 04:12:15;;;;;;;6.03;5.30;;;15.40;99.90;;;;;;5037293;28;20104;-79
2022/06/07 04:14:43;;;;;;;8.13;5.60;;;15.50;99.90;;;;;;5055233;28;20490;-78
2022/06/07 04:17:09;;;;;;;6.78;5.75;;;15.70;99.90;;;;;;5054003;28;20017;-77
2022/06/07 04:19:36;;;;;;;6.82;5.85;;;15.50;99.90;;;;;;5037095;28;20054;-78
2022/06/07 04:22:03;;;;;;;5.82;5.32;;;15.60;99.90;;;;;;5055282;28;20021;-79
2022/06/07 04:24:29;;;;;;;6.65;5.72;;;15.50;99.90;;;;;;5037781;28;20025;-78
2022/06/07 04:26:55;;;;;;;9.23;5.40;;;15.50;99.90;;;;;;5036636;28;20032;-78
2022/06/07 04:29:20;;;;;;;7.57;5.15;;;15.50;99.90;;;;;;5036580;28;20025;-76
2022/06/07 04:31:46;;;;;;;7.20;5.10;;;15.60;99.90;;;;;;5053139;28;20103;-77
2022/06/07 04:34:12;;;;;;;6.68;5.97;;;15.80;99.90;;;;;;5052150;28;20040;-76
2022/06/07 04:36:37;;;;;;;6.53;5.72;;;15.70;99.90;;;;;;5053139;28;20025;-77
2022/06/07 04:39:06;;;;;;;7.07;5.80;;;15.80;99.90;;;;;;5035912;28;20036;-77
2022/06/07 04:41:31;;;;;;;7.18;6.07;;;15.80;99.90;;;;;;5034898;28;20720;-77
2022/06/07 04:43:57;;;;;;;5.85;5.00;;;15.80;99.90;;;;;;5053456;28;20021;-77
2022/06/07 04:46:24;;;;;;;5.45;4.82;;;15.90;99.90;;;;;;5052744;28;20025;-76
2022/06/07 04:48:50;;;;;;;6.38;4.97;;;15.90;99.90;;;;;;5052279;28;20037;-76
2022/06/07 04:51:19;;;;;;;6.13;5.22;;;15.70;99.90;;;;;;5051380;28;20090;-76
2022/06/07 04:53:45;;;;;;;5.53;4.72;;;15.60;99.90;;;;;;5053597;28;20478;-75
2022/06/07 04:56:13;;;;;;;9.40;5.05;;;15.60;99.90;;;;;;5057040;28;20033;-77
2022/06/07 04:58:39;;;;;;;5.07;4.65;;;15.70;99.90;;;;;;5039588;28;20021;-77
2022/06/07 05:01:14;;;;;;;8.05;5.82;;;15.80;99.90;;;;;;5034924;28;20027;-72
2022/06/07 05:03:40;;;;;;;6.78;5.38;;;15.80;99.90;;;;;;5043788;28;20025;-77
2022/06/07 05:06:26;;;;;;;6.80;6.10;;;15.80;99.90;;;;;;5044343;28;20032;-78
2022/06/07 05:08:56;;;;;;;5.17;4.73;;;16.00;99.90;;;;;;5046886;28;20469;-78
2022/06/07 05:11:21;;;;;;;5.32;4.80;;;16.00;99.90;;;;;;5045073;28;20025;-77
2022/06/07 05:13:47;;;;;;;6.22;5.60;;;16.00;99.90;;;;;;5061784;28;20108;-77
2022/06/07 05:16:13;;;;;;;6.80;5.88;;;16.00;99.90;;;;;;5051158;28;20371;-78
2022/06/07 05:18:39;;;;;;;7.25;5.72;;;16.00;99.90;;;;;;5063798;28;20024;-77
2022/06/07 05:21:06;;;;;;;6.45;5.82;;;16.00;99.90;;;;;;5063250;28;20043;-78
2022/06/07 05:23:32;;;;;;;7.55;5.72;;;16.10;99.90;;;;;;5081082;28;20076;-77
2022/06/07 05:26:26;;;;;;;8.18;6.10;;;16.10;99.90;;;;;;5079564;28;20059;-77
2022/06/07 05:28:52;;;;;;;7.68;5.75;;;16.00;99.90;;;;;;5081973;28;20078;-77
2022/06/07 05:31:17;;;;;;;7.65;6.70;;;16.20;99.90;;;;;;5082649;28;20024;-77
2022/06/07 05:33:43;;;;;;;7.80;6.20;;;16.40;99.90;;;;;;5084000;28;20516;-78
2022/06/07 05:36:09;;;;;;;6.93;6.20;;;16.30;99.90;;;;;;5082030;28;20032;-78
2022/06/07 05:38:35;;;;;;;7.53;6.18;;;16.20;99.90;;;;;;5062943;28;20040;-78
2022/06/07 05:41:00;;;;;;;6.40;5.70;;;16.20;99.90;;;;;;5081378;28;20078;-78
2022/06/07 05:43:27;;;;;;;7.55;6.00;;;16.20;99.90;;;;;;5082643;28;20024;-78
2022/06/07 05:45:55;;;;;;;6.03;5.47;;;16.20;99.90;;;;;;5058856;28;20058;-77
2022/06/07 05:48:22;;;;;;;6.40;5.38;;;16.20;99.90;;;;;;5077601;28;20078;-77
2022/06/07 05:50:49;;;;;;;5.90;5.40;;;16.30;99.90;;;;;;5046782;28;20025;-77
2022/06/07 05:53:15;;;;;;;5.50;5.03;;;16.30;99.90;;;;;;5058334;28;20540;-77
2022/06/07 05:55:41;;;;;;;5.85;5.25;;;16.40;99.90;;;;;;5059266;28;20041;-77
2022/06/07 05:58:07;;;;;;;5.20;4.68;;;16.40;99.90;;;;;;5062671;28;20063;-77
2022/06/07 06:00:34;;;;;;;7.80;4.60;;;16.40;99.90;;;;;;5047245;28;20029;-77
2022/06/07 06:02:59;;;;;;;4.95;4.45;;;16.60;99.90;;;;;;5044669;28;20021;-77
2022/06/07 06:05:25;;;;;;;7.15;4.93;;;16.60;99.90;;;;;;5069536;28;20055;-77
2022/06/07 06:10:34;;;;;;;6.13;4.43;;;16.70;99.90;;;;;;5060989;28;20120;-78
2022/06/07 06:13:00;;;;;;;4.70;3.90;;;17.10;99.90;;;;;;5050136;28;20044;-78
2022/06/07 06:15:26;;;;;;;5.60;4.13;;;17.00;99.90;;;;;;5048721;28;20055;-78
2022/06/07 06:17:52;;;;;;;4.70;4.30;;;16.90;99.90;;;;;;5052732;28;20025;-77
2022/06/07 06:20:18;;;;;;;3.92;3.53;;;16.70;99.90;;;;;;5039900;28;20025;-78
2022/06/07 06:22:43;;;;;;;6.10;3.75;;;16.90;99.90;;;;;;5053725;28;20041;-78
2022/06/07 06:25:09;;;;;;;3.92;3.40;;;16.80;99.90;;;;;;5059415;28;20493;-73
2022/06/07 06:27:35;;;;;;;7.10;3.70;;;16.90;99.90;;;;;;5069198;28;20082;-77
2022/06/07 06:30:00;;;;;;;4.25;3.50;;;17.00;99.90;;;;;;5069753;28;20032;-76
2022/06/07 06:32:26;;;;;;;4.18;3.72;;;17.20;99.90;;;;;;5057377;28;20028;-76
2022/06/07 06:34:52;;;;;;;6.22;3.65;;;17.00;99.90;;;;;;5053682;28;20398;-77
2022/06/07 06:37:18;;;;;;;5.10;3.55;;;17.00;99.90;;;;;;5047467;28;20028;-71
2022/06/07 06:39:44;;;;;;;8.35;3.80;;;17.00;99.90;;;;;;5046627;28;20060;-77
2022/06/07 06:42:10;;;;;;;5.55;3.80;;;17.00;99.90;;;;;;5057979;28;20095;-77
2022/06/07 06:44:36;;;;;;;3.63;3.30;;;17.10;99.90;;;;;;5058657;28;20021;-77
2022/06/07 06:47:01;;;;;;;6.80;3.40;;;17.00;99.90;;;;;;5064597;28;20031;-76
2022/06/07 06:49:28;;;;;;;5.20;3.47;;;17.00;99.90;;;;;;5046583;28;20118;-76
2022/06/07 06:51:55;;;;;;;6.25;3.63;;;17.00;99.90;;;;;;5026175;28;20033;-76
2022/06/07 06:54:21;;;;;;;6.15;3.40;;;17.10;99.90;;;;;;5057191;28;20025;-76
2022/06/07 06:56:48;;;;;;;6.32;3.30;;;17.30;99.90;;;;;;5039464;28;20068;-76
2022/06/07 06:59:15;;;;;;;4.40;3.25;;;17.30;99.90;;;;;;5061754;28;20024;-75
2022/06/07 07:01:41;;;;;;;4.00;2.53;;;17.30;99.90;;;;;;5049199;28;20049;-76
2022/06/07 07:04:13;;;;;;;3.45;3.10;;;17.60;99.90;;;;;;5067867;28;20071;-76
2022/06/07 07:06:39;;;;;;;2.97;2.70;;;17.70;99.90;;;;;;5062275;28;20021;-76
2022/06/07 07:09:06;;;;;;;3.70;2.97;;;17.80;99.90;;;;;;5043291;28;20468;-76
2022/06/07 07:11:44;;;;;;;4.18;3.00;;;17.80;99.90;;;;;;5047937;28;20060;-76
2022/06/07 07:14:11;;;;;;;4.38;2.88;;;17.60;99.90;;;;;;5050168;28;20030;-76
2022/06/07 07:16:46;;;;;;;7.30;3.00;;;17.90;99.90;;;;;;5063835;28;20416;-76
2022/06/07 07:19:13;;;;;;;3.70;3.08;;;17.90;99.90;;;;;;5060821;28;20025;-76
2022/06/07 07:21:43;;;;;;;6.28;3.00;;;17.80;99.90;;;;;;5044153;28;20063;-76
2022/06/07 07:24:13;;;;;;;3.28;2.35;;;17.90;99.90;;;;;;5049397;28;20067;-76
2022/06/07 07:26:43;;;;;;;4.90;2.60;;;17.80;99.90;;;;;;5066706;28;20146;-76
2022/06/07 07:29:09;;;;;;;6.82;2.88;;;17.80;99.90;;;;;;5049699;28;20037;-76
2022/06/07 07:31:36;;;;;;;2.97;2.47;;;17.80;99.90;;;;;;5035519;28;20029;-76
2022/06/07 07:34:04;;;;;;;4.20;2.70;;;18.00;99.90;;;;;;5051577;28;20055;-76
2022/06/07 07:36:30;;;;;;;3.20;2.47;;;18.00;99.90;;;;;;5071324;28;20028;-77
2022/06/07 07:38:56;;;;;;;2.50;2.17;;;18.10;99.90;;;;;;5046054;28;20032;-77
2022/06/07 07:41:27;;;;;;;2.50;2.30;;;18.00;99.90;;;;;;5048379;28;20028;-77
2022/06/07 07:43:55;;;;;;;2.65;2.15;;;18.00;99.90;;;;;;5063224;28;20070;-76
2022/06/07 07:46:23;;;;;;;5.65;2.47;;;18.10;99.90;;;;;;5078438;28;20054;-77
2022/06/07 07:48:49;;;;;;;4.75;2.20;;;18.30;99.90;;;;;;5060633;28;20049;-77
2022/06/07 07:51:27;;;;;;;7.57;2.30;;;18.10;99.90;;;;;;5078250;28;20021;-77
2022/06/07 07:53:55;;;;;;;3.95;1.90;;;18.00;99.90;;;;;;5050950;28;20037;-77
2022/06/07 07:56:21;;;;;;;2.03;1.67;;;17.90;99.90;;;;;;5071171;28;20032;-76
2022/06/07 07:58:47;;;;;;;1.85;1.48;;;18.40;99.90;;;;;;5064536;28;20021;-76
2022/06/07 08:01:16;;;;;;;1.70;1.50;;;18.70;99.90;;;;;;5060538;28;20032;-76
2022/06/07 08:03:42;;;;;;;2.60;1.70;;;18.80;99.90;;;;;;5068509;28;20049;-76
2022/06/07 08:06:12;;;;;;;2.22;1.45;;;18.70;99.90;;;;;;5074594;28;20029;-77
2022/06/07 08:08:39;;;;;;;2.60;1.73;;;18.40;99.90;;;;;;5058127;28;20025;-77
2022/06/07 08:11:06;;;;;;;1.98;1.77;;;18.70;99.90;;;;;;5063310;28;20035;-77
2022/06/07 08:13:32;;;;;;;2.33;1.40;;;18.80;99.90;;;;;;5073461;28;20052;-77
2022/06/07 08:15:59;;;;;;;2.10;1.73;;;18.80;99.90;;;;;;5074241;28;20516;-77
2022/06/07 08:18:26;;;;;;;1.65;1.52;;;18.40;99.90;;;;;;5050088;28;20021;-77
2022/06/07 08:20:57;;;;;;;3.05;1.33;;;18.20;99.90;;;;;;5045718;28;20024;-77
2022/06/07 08:23:23;;;;;;;3.80;1.60;;;18.60;99.90;;;;;;5066777;28;20029;-77
2022/06/07 08:25:49;;;;;;;4.13;1.55;;;18.30;99.90;;;;;;5073836;28;20036;-77
2022/06/07 08:28:14;;;;;;;2.78;1.45;;;18.70;99.90;;;;;;5073064;28;20051;-77
2022/06/07 08:30:45;;;;;;;2.88;1.50;;;19.10;99.90;;;;;;5066551;28;20537;-75
2022/06/07 08:38:40;;;;;;;2.33;1.80;;;18.70;99.90;;;;;;5061921;28;20032;-76
2022/06/07 08:41:06;;;;;;;4.43;1.45;;;18.70;99.90;;;;;;5076122;28;20406;-77
2022/06/07 08:43:32;;;;;;;2.65;1.40;;;19.20;99.90;;;;;;5063943;28;20021;-77
2022/06/07 08:45:58;;;;;;;2.33;1.60;;;19.40;99.90;;;;;;5062804;28;20604;-77
2022/06/07 08:48:28;;;;;;;3.28;1.30;;;19.60;99.90;;;;;;5061654;28;20029;-77
2022/06/07 08:51:25;;;;;;;2.63;1.60;;;19.50;99.90;;;;;;5045181;28;20025;-77
2022/06/07 08:53:54;;;;;;;2.00;1.60;;;19.70;99.90;;;;;;5052443;28;20520;-77
2022/06/07 08:56:25;;;;;;;2.22;1.80;;;19.40;99.90;;;;;;5051396;28;20029;-78
2022/06/07 08:58:52;;;;;;;2.88;1.60;;;19.10;99.90;;;;;;5071730;28;20025;-78
2022/06/07 09:01:23;;;;;;;2.75;1.42;;;18.90;99.90;;;;;;5056187;28;20104;-77
2022/06/07 09:04:14;;;;;;;1.10;1.00;;;19.00;99.90;;;;;;5051585;28;20028;-77
2022/06/07 09:06:42;;;;;;;2.20;1.20;;;18.90;99.90;;;;;;5048385;28;20066;-77
2022/06/07 09:09:10;;;;;;;1.17;1.08;;;19.00;99.90;;;;;;5061568;28;20024;-77
2022/06/07 09:14:49;;;;;;;1.35;1.20;;;19.30;99.90;;;;;;5070036;28;20108;-77
2022/06/07 09:17:29;;;;;;;2.85;1.08;;;19.40;99.90;;;;;;5048659;28;20053;-77
2022/06/07 09:19:55;;;;;;;4.00;1.23;;;19.40;99.90;;;;;;5042738;28;20060;-77
2022/06/07 09:22:25;;;;;;;4.28;1.40;;;19.30;99.90;;;;;;5055896;28;20477;-77
2022/06/07 09:25:03;;;;;;;1.95;1.10;;;19.50;99.90;;;;;;5072415;28;20036;-77
2022/06/07 09:27:33;;;;;;;2.90;1.20;;;19.50;99.90;;;;;;5052626;28;20103;-76
2022/06/07 09:30:23;;;;;;;2.60;1.23;;;19.50;99.90;;;;;;5034447;28;20029;-76
2022/06/07 09:32:49;;;;;;;2.10;1.30;;;19.70;99.90;;;;;;5066958;28;20037;-77
2022/06/07 09:35:20;;;;;;;2.67;1.80;;;19.90;99.90;;;;;;5034862;28;20048;-77
2022/06/07 09:37:54;;;;;;;2.40;1.13;;;20.00;99.90;;;;;;5062959;28;20017;-78
2022/06/07 09:40:36;;;;;;;1.75;1.25;;;19.80;99.90;;;;;;5058348;28;20028;-77
2022/06/07 09:43:16;;;;;;;2.00;1.20;;;19.90;99.90;;;;;;5058578;28;20673;-77
2022/06/07 09:45:44;;;;;;;3.40;1.38;;;20.30;99.90;;;;;;5062969;28;20081;-77
2022/06/07 09:48:28;;;;;;;2.50;1.23;;;20.00;99.90;;;;;;5065626;28;20046;-78
2022/06/07 09:51:06;;;;;;;1.08;0.93;;;20.50;99.90;;;;;;5033612;28;20021;-77
2022/06/07 09:53:38;;;;;;;2.50;1.27;;;20.10;99.90;;;;;;5028137;28;20551;-79
2022/06/07 09:56:06;;;;;;;9.10;2.08;;;19.90;99.90;;;;;;5058724;28;20033;-77
2022/06/07 09:58:55;;;;;;;2.35;1.15;;;19.80;99.90;;;;;;5064185;28;20521;-78
2022/06/07 10:01:33;;;;;;;1.20;0.95;;;19.30;99.90;;;;;;5064928;28;20129;-77
2022/06/07 10:04:20;;;;;;;3.05;1.45;;;19.20;99.90;;;;;;5064599;28;20505;-78
2022/06/07 10:07:00;;;;;;;3.05;1.10;;;19.10;99.90;;;;;;5050387;28;20032;-78
2022/06/07 10:09:33;;;;;;;1.88;1.00;;;19.60;99.90;;;;;;5058805;28;20058;-77
2022/06/07 10:12:14;;;;;;;0.95;0.80;;;20.00;99.90;;;;;;5059529;28;20364;-79
2022/06/07 10:14:54;;;;;;;0.90;0.80;;;20.30;99.90;;;;;;5047561;28;20024;-78
2022/06/07 10:17:52;;;;;;;3.10;1.15;;;20.10;99.90;;;;;;5044104;28;20032;-77
2022/06/07 10:20:26;;;;;;;2.58;1.20;;;20.30;99.90;;;;;;5062888;28;20486;-78
2022/06/07 10:23:15;;;;;;;1.27;1.02;;;20.50;99.90;;;;;;5053873;28;20028;-78
2022/06/07 10:26:11;;;;;;;2.65;1.45;;;20.40;99.90;;;;;;5058334;28;20028;-79
2022/06/07 10:28:45;;;;;;;1.20;1.00;;;20.60;99.90;;;;;;5071221;28;20355;-78
2022/06/07 10:31:25;;;;;;;2.35;1.00;;;20.70;99.90;;;;;;5061912;28;20025;-80
2022/06/07 10:33:55;;;;;;;1.58;0.90;;;20.80;99.90;;;;;;5050539;28;20044;-79
2022/06/07 10:36:39;;;;;;;1.45;0.85;;;20.60;99.90;;;;;;5068367;28;20101;-78
2022/06/07 10:39:24;;;;;;;1.38;0.98;;;20.70;99.90;;;;;;5067655;28;20558;-78
2022/06/07 10:41:52;;;;;;;1.35;0.85;;;20.30;99.90;;;;;;5050875;28;20418;-78
2022/06/07 10:44:27;;;;;;;1.20;1.00;;;19.80;99.90;;;;;;5049998;28;20031;-78
2022/06/07 10:46:53;;;;;;;3.33;1.23;;;19.90;99.90;;;;;;5061442;28;20037;-78
2022/06/07 10:49:42;;;;;;;1.23;0.90;;;19.90;99.90;;;;;;5064037;28;20037;-77
2022/06/07 10:52:32;;;;;;;1.95;1.05;;;19.90;99.90;;;;;;5035093;28;20108;-78
2022/06/07 10:55:04;;;;;;;1.92;0.90;;;19.90;99.90;;;;;;5056768;28;20021;-79
2022/06/07 10:57:40;;;;;;;3.60;1.30;;;20.10;99.90;;;;;;5064258;28;20025;-79
2022/06/07 11:00:30;;;;;;;2.45;0.93;;;20.00;99.90;;;;;;5045822;28;20056;-78
2022/06/07 11:03:17;;;;;;;1.55;1.00;;;20.00;99.90;;;;;;5044058;28;20032;-78
2022/06/07 11:11:40;;;;;;;1.20;1.10;;;20.10;99.90;;;;;;5063780;28;20588;-78
2022/06/07 11:14:13;;;;;;;3.28;1.00;;;20.20;99.90;;;;;;5059182;28;20025;-78
2022/06/07 11:16:48;;;;;;;1.25;0.98;;;20.40;99.90;;;;;;5047223;28;20115;-79
2022/06/07 11:19:13;;;;;;;3.60;1.00;;;20.40;99.90;;;;;;5055495;28;20072;-77
2022/06/07 11:21:43;;;;;;;2.67;0.90;;;20.50;99.90;;;;;;5066492;28;20522;-77
2022/06/07 11:24:18;;;;;;;3.67;1.20;;;20.70;99.90;;;;;;5061812;28;20496;-79
2022/06/07 11:26:52;;;;;;;1.10;1.00;;;20.80;99.90;;;;;;5062513;28;20486;-78
2022/06/07 11:29:27;;;;;;;3.40;1.15;;;20.60;99.90;;;;;;5035377;28;20104;-78
2022/06/07 11:31:54;;;;;;;0.80;0.80;;;20.60;99.90;;;;;;5057872;28;20025;-78
2022/06/07 11:34:27;;;;;;;0.95;0.80;;;20.40;99.90;;;;;;5065767;28;20031;-78
2022/06/07 11:37:00;;;;;;;3.53;1.05;;;20.20;99.90;;;;;;5050549;28;20036;-79
2022/06/07 11:39:39;;;;;;;1.52;1.00;;;19.90;99.90;;;;;;5057050;28;20027;-77
2022/06/07 11:42:15;;;;;;;1.65;1.00;;;20.00;99.90;;;;;;5060818;28;20556;-77
2022/06/07 11:44:45;;;;;;;1.23;1.00;;;19.80;99.90;;;;;;5042659;28;20509;-77
2022/06/07 11:47:11;;;;;;;2.35;1.00;;;19.60;99.90;;;;;;5066902;28;20043;-77
2022/06/07 11:49:57;;;;;;;1.05;0.90;;;19.80;99.90;;;;;;5050581;28;20119;-77
2022/06/07 11:52:55;;;;;;;1.73;0.95;;;19.80;99.90;;;;;;5044918;28;20025;-77
2022/06/07 11:55:24;;;;;;;5.63;1.00;;;20.10;99.90;;;;;;5030532;28;20406;-77
2022/06/07 11:58:00;;;;;;;1.45;0.98;;;20.80;99.90;;;;;;5042793;28;20056;-77
2022/06/07 12:00:47;;;;;;;2.72;0.95;;;20.90;99.90;;;;;;5063667;28;20017;-77
2022/06/07 12:03:28;;;;;;;2.55;1.08;;;20.90;99.90;;;;;;5049731;28;20367;-78
2022/06/07 12:06:04;;;;;;;2.45;1.20;;;20.80;99.90;;;;;;5067642;28;20510;-77
2022/06/07 12:08:51;;;;;;;2.40;1.27;;;20.60;99.90;;;;;;5056309;28;20082;-77
2022/06/07 12:11:26;;;;;;;3.08;0.98;;;20.80;99.90;;;;;;5042572;28;20040;-77
2022/06/07 12:14:01;;;;;;;5.55;1.60;;;21.20;99.90;;;;;;5042597;28;20090;-77
2022/06/07 12:16:37;;;;;;;2.80;0.93;;;21.60;99.90;;;;;;5047697;28;20111;-77
2022/06/07 12:19:21;;;;;;;2.58;1.38;;;21.50;99.90;;;;;;5048469;28;20418;-77
2022/06/07 12:22:02;;;;;;;1.95;1.08;;;22.30;99.90;;;;;;5033406;28;20022;-77
2022/06/07 12:24:36;;;;;;;1.52;1.00;;;22.50;99.90;;;;;;5030107;28;20017;-78
2022/06/07 12:27:25;;;;;;;1.80;1.00;;;22.20;99.90;;;;;;5071915;28;20042;-77
2022/06/07 12:29:54;;;;;;;3.47;1.00;;;22.00;99.90;;;;;;5047779;28;20027;-77
2022/06/07 12:32:35;;;;;;;1.98;0.95;;;22.70;99.90;;;;;;5041466;28;20023;-78
2022/06/07 12:35:15;;;;;;;1.58;0.90;;;23.20;99.90;;;;;;5042097;28;20040;-77
2022/06/07 12:37:45;;;;;;;1.50;0.85;;;22.50;99.90;;;;;;5046156;28;20025;-77
2022/06/07 12:40:55;;;;;;;3.20;1.20;;;21.90;99.90;;;;;;5048700;28;20036;-77
2022/06/07 12:43:33;;;;;;;2.17;0.80;;;21.30;99.90;;;;;;5037079;28;20028;-77
2022/06/07 12:46:17;;;;;;;1.35;1.00;;;20.80;99.90;;;;;;5046447;28;20025;-77
2022/06/07 12:48:43;;;;;;;3.08;0.93;;;21.10;99.90;;;;;;5047058;28;20043;-77
2022/06/07 12:51:28;;;;;;;1.65;1.00;;;21.20;99.90;;;;;;5041167;28;20025;-77
2022/06/07 12:54:00;;;;;;;1.42;0.90;;;21.30;99.90;;;;;;5045835;28;20083;-78
2022/06/07 12:56:30;;;;;;;2.03;1.00;;;21.20;99.90;;;;;;5068823;28;20021;-77
2022/06/07 12:58:57;;;;;;;2.40;1.00;;;21.10;99.90;;;;;;5044204;28;20025;-77
2022/06/07 13:01:24;;;;;;;5.80;1.30;;;21.10;99.90;;;;;;5047743;28;20021;-77
2022/06/07 13:03:54;;;;;;;1.50;0.90;;;21.90;99.90;;;;;;5053316;28;20387;-78
2022/06/07 13:06:21;;;;;;;4.15;1.30;;;21.40;99.90;;;;;;5041558;28;20066;-77
2022/06/07 13:09:00;;;;;;;1.60;0.90;;;21.30;99.90;;;;;;5067160;28;20098;-76
2022/06/07 13:11:28;;;;;;;2.55;0.93;;;21.20;99.90;;;;;;5046474;28;20427;-78
2022/06/07 13:13:54;;;;;;;2.55;0.95;;;20.90;99.90;;;;;;5047674;28;20074;-76
2022/06/07 13:16:19;;;;;;;1.58;1.20;;;20.90;99.90;;;;;;5058651;28;20405;-75
2022/06/07 13:19:18;;;;;;;2.22;1.10;;;21.00;99.90;;;;;;5066753;28;20027;-74
2022/06/07 13:22:10;;;;;;;1.48;0.93;;;20.70;99.90;;;;;;5048859;28;20115;-76
2022/06/07 13:25:03;;;;;;;1.55;1.00;;;20.80;99.90;;;;;;5045650;28;20017;-78
2022/06/07 13:27:52;;;;;;;2.00;0.90;;;20.40;99.90;;;;;;5047785;28;20075;-77
2022/06/07 13:30:21;;;;;;;2.55;1.10;;;20.20;99.90;;;;;;5064679;28;20036;-76
2022/06/07 13:32:58;;;;;;;1.27;1.00;;;20.30;99.90;;;;;;5060019;28;20436;-78